Time,TemperatureF,DewpointF,PressureIn,WindDirection,WindDirectionDegrees,WindSpeedMPH,WindSpeedGustMPH,Humidity,HourlyPrecipIn,Conditions,Clouds,dailyrainin,SoftwareType,DateUTC
2013-10-26 00:01:00,34.2,31.8,30.19,SE,135,1.0,8.0,91,0.00,,,0.05,Wunderground v.1.15,2013-10-26 04:01:00,
2013-10-26 00:02:00,34.2,31.6,30.19,SW,235,2.0,8.0,90,0.00,,,0.00,Wunderground v.1.15,2013-10-26 04:02:00,
2013-10-26 00:03:00,34.2,31.6,30.19,SW,215,1.0,8.0,90,0.00,,,0.00,Wunderground v.1.15,2013-10-26 04:03:00,
2013-10-26 00:05:00,34.2,31.6,30.19,SSW,195,1.0,8.0,90,0.00,,,0.00,Wunderground v.1.15,2013-10-26 04:05:00,
2013-10-26 00:08:00,34.1,31.5,30.19,SSW,203,1.0,8.0,90,0.00,,,0.00,Wunderground v.1.15,2013-10-26 04:08:00,
2013-10-26 00:10:00,34.0,31.4,30.19,SE,142,1.0,8.0,90,0.00,,,0.00,Wunderground v.1.15,2013-10-26 04:10:00,
2013-10-26 00:15:00,33.8,31.5,30.19,SW,232,1.0,8.0,91,0.00,,,0.00,Wunderground v.1.15,2013-10-26 04:15:00,
2013-10-26 00:21:00,33.6,31.3,30.19,WSW,248,1.0,8.0,91,0.00,,,0.00,Wunderground v.1.15,2013-10-26 04:21:00,
2013-10-26 00:26:00,33.6,31.3,30.19,SSE,160,1.0,8.0,91,0.00,,,0.00,Wunderground v.1.15,2013-10-26 04:26:00,
2013-10-26 00:31:00,33.5,31.2,30.19,SW,235,1.0,8.0,91,0.00,,,0.00,Wunderground v.1.15,2013-10-26 04:31:00,
2013-10-26 00:36:00,33.3,31.2,30.19,SSW,208,0.0,8.0,92,0.00,,,0.00,Wunderground v.1.15,2013-10-26 04:36:00,
2013-10-26 00:41:00,33.3,31.2,30.19,SW,218,0.0,8.0,92,0.00,,,0.00,Wunderground v.1.15,2013-10-26 04:41:00,
2013-10-26 00:47:00,33.1,31.0,30.19,SSW,212,0.0,8.0,92,0.00,,,0.00,Wunderground v.1.15,2013-10-26 04:47:00,
2013-10-26 00:52:00,33.1,31.0,30.19,WSW,249,1.0,8.0,92,0.00,,,0.00,Wunderground v.1.15,2013-10-26 04:52:00,
2013-10-26 00:57:00,32.9,31.1,30.19,SE,142,1.0,8.0,93,0.00,,,0.00,Wunderground v.1.15,2013-10-26 04:57:00,
2013-10-26 01:03:00,33.0,31.2,30.19,SW,225,1.0,8.0,93,0.00,,,0.00,Wunderground v.1.15,2013-10-26 05:03:00,
2013-10-26 01:08:00,33.2,31.4,30.19,SW,225,1.0,8.0,93,0.00,,,0.00,Wunderground v.1.15,2013-10-26 05:08:00,
2013-10-26 01:13:00,33.4,31.6,30.18,SSW,194,1.0,8.0,93,0.00,,,0.00,Wunderground v.1.15,2013-10-26 05:13:00,
2013-10-26 01:18:00,33.5,31.4,30.18,SW,225,1.0,8.0,92,0.00,,,0.00,Wunderground v.1.15,2013-10-26 05:18:00,
2013-10-26 01:24:00,33.5,31.4,30.18,SSW,210,1.0,8.0,92,0.00,,,0.00,Wunderground v.1.15,2013-10-26 05:24:00,
2013-10-26 01:29:00,33.4,31.3,30.18,SSE,148,1.0,8.0,92,0.00,,,0.00,Wunderground v.1.15,2013-10-26 05:29:00,
2013-10-26 01:34:00,33.3,31.2,30.18,SW,219,1.0,8.0,92,0.00,,,0.00,Wunderground v.1.15,2013-10-26 05:34:00,
2013-10-26 01:40:00,33.2,31.1,30.18,SW,226,0.0,8.0,92,0.00,,,0.00,Wunderground v.1.15,2013-10-26 05:40:00,
2013-10-26 01:45:00,33.2,31.1,30.18,SW,226,0.0,8.0,92,0.00,,,0.00,Wunderground v.1.15,2013-10-26 05:45:00,
2013-10-26 01:50:00,33.0,30.9,30.18,SW,215,0.0,8.0,92,0.00,,,0.00,Wunderground v.1.15,2013-10-26 05:50:00,
2013-10-26 01:55:00,32.8,30.7,30.18,SW,226,0.0,8.0,92,0.00,,,0.00,Wunderground v.1.15,2013-10-26 05:55:00,
2013-10-26 02:00:00,32.7,30.6,30.18,SW,232,0.0,8.0,92,0.00,,,0.00,Wunderground v.1.15,2013-10-26 06:00:00,
2013-10-26 02:05:00,32.6,30.5,30.18,South,187,0.0,8.0,92,0.00,,,0.00,Wunderground v.1.15,2013-10-26 06:05:00,
2013-10-26 02:10:00,32.5,30.4,30.18,SW,235,0.0,8.0,92,0.00,,,0.00,Wunderground v.1.15,2013-10-26 06:10:00,
2013-10-26 02:15:00,32.4,30.3,30.17,WSW,248,0.0,8.0,92,0.00,,,0.00,Wunderground v.1.15,2013-10-26 06:15:00,
2013-10-26 02:21:00,32.5,30.4,30.17,ESE,108,0.0,8.0,92,0.00,,,0.00,Wunderground v.1.15,2013-10-26 06:21:00,
2013-10-26 02:26:00,32.6,30.5,30.17,WSW,242,0.0,8.0,92,0.00,,,0.00,Wunderground v.1.15,2013-10-26 06:26:00,
2013-10-26 02:31:00,32.5,30.4,30.17,WSW,245,0.0,8.0,92,0.00,,,0.00,Wunderground v.1.15,2013-10-26 06:31:00,
2013-10-26 02:36:00,32.6,30.5,30.17,SW,231,1.0,8.0,92,0.00,,,0.00,Wunderground v.1.15,2013-10-26 06:36:00,
2013-10-26 02:41:00,32.7,30.6,30.17,SW,219,1.0,8.0,92,0.00,,,0.00,Wunderground v.1.15,2013-10-26 06:41:00,
2013-10-26 02:47:00,32.7,30.6,30.17,SSW,200,1.0,8.0,92,0.00,,,0.00,Wunderground v.1.15,2013-10-26 06:47:00,
2013-10-26 02:52:00,32.7,30.6,30.17,SSW,207,1.0,8.0,92,0.00,,,0.00,Wunderground v.1.15,2013-10-26 06:52:00,
2013-10-26 02:57:00,32.5,30.4,30.17,SW,231,0.0,8.0,92,0.00,,,0.00,Wunderground v.1.15,2013-10-26 06:57:00,
2013-10-26 03:02:00,32.5,30.4,30.17,WSW,249,0.0,8.0,92,0.00,,,0.00,Wunderground v.1.15,2013-10-26 07:02:00,
2013-10-26 03:07:00,32.5,30.4,30.16,SW,221,1.0,8.0,92,0.00,,,0.00,Wunderground v.1.15,2013-10-26 07:07:00,
2013-10-26 03:12:00,32.5,30.4,30.17,West,267,1.0,8.0,92,0.00,,,0.00,Wunderground v.1.15,2013-10-26 07:12:00,
2013-10-26 03:17:00,32.5,30.4,30.16,SSW,210,1.0,8.0,92,0.00,,,0.00,Wunderground v.1.15,2013-10-26 07:17:00,
2013-10-26 03:23:00,32.5,30.2,30.16,West,260,1.0,8.0,91,0.00,,,0.00,Wunderground v.1.15,2013-10-26 07:23:00,
2013-10-26 03:28:00,32.4,30.1,30.16,WNW,287,1.0,8.0,91,0.00,,,0.00,Wunderground v.1.15,2013-10-26 07:28:00,
2013-10-26 03:33:00,32.4,30.1,30.16,SW,231,0.0,8.0,91,0.00,,,0.00,Wunderground v.1.15,2013-10-26 07:33:00,
2013-10-26 03:38:00,32.3,29.7,30.16,NNE,32,1.0,8.0,90,0.00,,,0.00,Wunderground v.1.15,2013-10-26 07:38:00,
2013-10-26 03:43:00,32.1,29.5,30.15,SSW,203,0.0,8.0,90,0.00,,,0.00,Wunderground v.1.15,2013-10-26 07:43:00,
2013-10-26 03:49:00,31.8,29.5,30.15,WSW,249,0.0,8.0,91,0.00,,,0.00,Wunderground v.1.15,2013-10-26 07:49:00,
2013-10-26 03:54:00,31.6,29.3,30.14,SSE,152,1.0,8.0,91,0.00,,,0.00,Wunderground v.1.15,2013-10-26 07:54:00,
2013-10-26 03:59:00,31.5,29.2,30.14,SW,231,1.0,8.0,91,0.00,,,0.00,Wunderground v.1.15,2013-10-26 07:59:00,
2013-10-26 04:04:00,31.4,29.1,30.14,WNW,285,1.0,8.0,91,0.00,,,0.00,Wunderground v.1.15,2013-10-26 08:04:00,
2013-10-26 04:09:00,31.5,29.4,30.14,South,183,1.0,8.0,92,0.00,,,0.00,Wunderground v.1.15,2013-10-26 08:09:00,
2013-10-26 04:15:00,32.0,29.7,30.14,SSW,210,2.0,8.0,91,0.00,,,0.00,Wunderground v.1.15,2013-10-26 08:15:00,
2013-10-26 04:20:00,32.2,29.6,30.14,SW,219,2.0,2.0,90,0.00,,,0.00,Wunderground v.1.15,2013-10-26 08:20:00,
2013-10-26 04:25:00,32.3,29.7,30.14,SW,214,1.0,8.0,90,0.00,,,0.00,Wunderground v.1.15,2013-10-26 08:25:00,
2013-10-26 04:30:00,32.3,29.4,30.14,WSW,255,1.0,8.0,89,0.00,,,0.00,Wunderground v.1.15,2013-10-26 08:30:00,
2013-10-26 04:35:00,32.3,29.4,30.14,SW,228,1.0,8.0,89,0.00,,,0.00,Wunderground v.1.15,2013-10-26 08:35:00,
2013-10-26 04:41:00,32.4,29.5,30.14,SSW,212,1.0,8.0,89,0.00,,,0.00,Wunderground v.1.15,2013-10-26 08:41:00,
2013-10-26 04:46:00,32.4,29.2,30.14,WSW,253,2.0,8.0,88,0.00,,,0.00,Wunderground v.1.15,2013-10-26 08:46:00,
2013-10-26 04:51:00,32.3,29.1,30.14,WSW,256,2.0,8.0,88,0.00,,,0.00,Wunderground v.1.15,2013-10-26 08:51:00,
2013-10-26 04:56:00,32.6,29.4,30.14,SW,228,2.0,8.0,88,0.00,,,0.00,Wunderground v.1.15,2013-10-26 08:56:00,
2013-10-26 05:01:00,32.5,29.3,30.14,West,271,2.0,8.0,88,0.00,,,0.00,Wunderground v.1.15,2013-10-26 09:01:00,
2013-10-26 05:07:00,32.5,29.3,30.14,West,267,1.0,8.0,88,0.00,,,0.00,Wunderground v.1.15,2013-10-26 09:07:00,
2013-10-26 05:12:00,32.7,29.3,30.13,SSW,201,1.0,8.0,87,0.00,,,0.00,Wunderground v.1.15,2013-10-26 09:12:00,
2013-10-26 05:17:00,32.6,29.2,30.13,SSW,210,1.0,8.0,87,0.00,,,0.00,Wunderground v.1.15,2013-10-26 09:17:00,
2013-10-26 05:22:00,32.6,28.9,30.13,SW,232,1.0,8.0,86,0.00,,,0.00,Wunderground v.1.15,2013-10-26 09:22:00,
2013-10-26 05:27:00,32.7,29.0,30.13,SW,227,2.0,8.0,86,0.00,,,0.00,Wunderground v.1.15,2013-10-26 09:27:00,
2013-10-26 05:33:00,32.7,29.0,30.13,SSW,208,2.0,8.0,86,0.00,,,0.00,Wunderground v.1.15,2013-10-26 09:33:00,
2013-10-26 05:38:00,32.8,28.8,30.13,SSW,197,2.0,8.0,85,0.00,,,0.00,Wunderground v.1.15,2013-10-26 09:38:00,
2013-10-26 05:43:00,32.8,28.8,30.13,WSW,252,2.0,8.0,85,0.00,,,0.00,Wunderground v.1.15,2013-10-26 09:43:00,
2013-10-26 05:48:00,32.9,28.6,30.13,SSW,195,2.0,8.0,84,0.00,,,0.00,Wunderground v.1.15,2013-10-26 09:48:00,
2013-10-26 05:53:00,32.8,28.5,30.13,East,83,2.0,8.0,84,0.00,,,0.00,Wunderground v.1.15,2013-10-26 09:53:00,
2013-10-26 05:59:00,32.7,28.4,30.13,SSW,200,2.0,8.0,84,0.00,,,0.00,Wunderground v.1.15,2013-10-26 09:59:00,
2013-10-26 06:04:00,32.7,28.4,30.13,SSE,159,2.0,8.0,84,0.00,,,0.00,Wunderground v.1.15,2013-10-26 10:04:00,
2013-10-26 06:09:00,32.7,28.1,30.13,WSW,249,1.0,8.0,83,0.00,,,0.00,Wunderground v.1.15,2013-10-26 10:09:00,
2013-10-26 06:14:00,32.9,28.3,30.12,SSW,203,2.0,8.0,83,0.00,,,0.00,Wunderground v.1.15,2013-10-26 10:14:00,
2013-10-26 06:19:00,32.9,28.3,30.13,SW,216,2.0,8.0,83,0.00,,,0.00,Wunderground v.1.15,2013-10-26 10:19:00,
2013-10-26 06:24:00,32.9,28.0,30.12,SW,235,1.0,8.0,82,0.00,,,0.00,Wunderground v.1.15,2013-10-26 10:24:00,
2013-10-26 06:29:00,32.9,28.0,30.12,SSW,200,2.0,8.0,82,0.00,,,0.00,Wunderground v.1.15,2013-10-26 10:29:00,
2013-10-26 06:34:00,32.9,28.0,30.12,West,262,1.0,8.0,82,0.00,,,0.00,Wunderground v.1.15,2013-10-26 10:34:00,
2013-10-26 06:39:00,32.8,27.9,30.12,SSW,204,1.0,8.0,82,0.00,,,0.00,Wunderground v.1.15,2013-10-26 10:39:00,
2013-10-26 06:44:00,32.7,27.8,30.12,South,191,2.0,8.0,82,0.00,,,0.00,Wunderground v.1.15,2013-10-26 10:44:00,
2013-10-26 06:49:00,32.5,27.6,30.12,SW,218,2.0,8.0,82,0.00,,,0.00,Wunderground v.1.15,2013-10-26 10:49:00,
2013-10-26 06:55:00,32.4,27.5,30.12,WSW,253,2.0,8.0,82,0.00,,,0.00,Wunderground v.1.15,2013-10-26 10:55:00,
2013-10-26 07:00:00,32.2,27.6,30.12,WSW,240,2.0,8.0,83,0.00,,,0.00,Wunderground v.1.15,2013-10-26 11:00:00,
2013-10-26 07:05:00,32.1,27.5,30.12,South,180,2.0,8.0,83,0.00,,,0.00,Wunderground v.1.15,2013-10-26 11:05:00,
2013-10-26 07:10:00,32.1,27.5,30.12,WSW,245,2.0,8.0,83,0.00,,,0.00,Wunderground v.1.15,2013-10-26 11:10:00,
2013-10-26 07:15:00,32.0,27.4,30.12,WSW,249,2.0,8.0,83,0.00,,,0.00,Wunderground v.1.15,2013-10-26 11:15:00,
2013-10-26 07:21:00,31.9,27.6,30.12,WSW,256,2.0,8.0,84,0.00,,,0.00,Wunderground v.1.15,2013-10-26 11:21:00,
2013-10-26 07:26:00,31.9,27.6,30.11,WSW,251,2.0,8.0,84,0.00,,,0.00,Wunderground v.1.15,2013-10-26 11:26:00,
2013-10-26 07:31:00,31.9,27.6,30.11,SSW,211,2.0,8.0,84,0.00,,,0.00,Wunderground v.1.15,2013-10-26 11:31:00,
2013-10-26 07:36:00,31.9,27.6,30.11,SSW,208,2.0,8.0,84,0.00,,,0.00,Wunderground v.1.15,2013-10-26 11:36:00,
2013-10-26 07:41:00,32.0,27.4,30.11,WSW,240,2.0,8.0,83,0.00,,,0.00,Wunderground v.1.15,2013-10-26 11:41:00,
2013-10-26 07:47:00,32.1,27.5,30.11,SSW,209,2.0,8.0,83,0.00,,,0.00,Wunderground v.1.15,2013-10-26 11:47:00,
2013-10-26 07:52:00,32.0,27.4,30.11,SSE,156,2.0,8.0,83,0.00,,,0.00,Wunderground v.1.15,2013-10-26 11:52:00,
2013-10-26 07:57:00,31.8,27.5,30.10,WSW,248,1.0,8.0,84,0.00,,,0.00,Wunderground v.1.15,2013-10-26 11:57:00,
2013-10-26 08:02:00,31.8,27.5,30.11,WSW,245,1.0,8.0,84,0.00,,,0.00,Wunderground v.1.15,2013-10-26 12:02:00,
2013-10-26 08:07:00,31.9,27.3,30.11,South,186,2.0,8.0,83,0.00,,,0.00,Wunderground v.1.15,2013-10-26 12:07:00,
2013-10-26 08:13:00,31.9,27.3,30.11,SSW,210,2.0,8.0,83,0.00,,,0.00,Wunderground v.1.15,2013-10-26 12:13:00,
2013-10-26 08:18:00,32.1,27.5,30.11,West,259,2.0,8.0,83,0.00,,,0.00,Wunderground v.1.15,2013-10-26 12:18:00,
2013-10-26 08:23:00,32.2,27.6,30.11,SW,221,2.0,8.0,83,0.00,,,0.00,Wunderground v.1.15,2013-10-26 12:23:00,
2013-10-26 08:28:00,32.4,27.5,30.10,SW,234,2.0,8.0,82,0.00,,,0.00,Wunderground v.1.15,2013-10-26 12:28:00,
2013-10-26 08:33:00,32.7,27.8,30.10,West,281,3.0,5.0,82,0.00,,,0.00,Wunderground v.1.15,2013-10-26 12:33:00,
2013-10-26 08:39:00,33.0,27.8,30.10,WNW,286,3.0,5.0,81,0.00,,,0.00,Wunderground v.1.15,2013-10-26 12:39:00,
2013-10-26 08:44:00,33.4,28.2,30.10,SW,228,2.0,6.0,81,0.00,,,0.00,Wunderground v.1.15,2013-10-26 12:44:00,
2013-10-26 08:49:00,33.9,28.4,30.10,SW,216,2.0,6.0,80,0.00,,,0.00,Wunderground v.1.15,2013-10-26 12:49:00,
2013-10-26 08:54:00,34.3,28.5,30.10,SSW,200,2.0,5.0,79,0.00,,,0.00,Wunderground v.1.15,2013-10-26 12:54:00,
2013-10-26 08:59:00,34.7,28.5,30.10,WSW,257,2.0,5.0,78,0.00,,,0.00,Wunderground v.1.15,2013-10-26 12:59:00,
2013-10-26 09:05:00,35.3,29.1,30.09,WSW,249,2.0,7.0,78,0.00,,,0.00,Wunderground v.1.15,2013-10-26 13:05:00,
2013-10-26 09:10:00,35.7,29.2,30.09,SW,229,2.0,7.0,77,0.00,,,0.00,Wunderground v.1.15,2013-10-26 13:10:00,
2013-10-26 09:15:00,36.0,29.2,30.09,ENE,78,3.0,8.0,76,0.00,,,0.00,Wunderground v.1.15,2013-10-26 13:15:00,
2013-10-26 09:20:00,36.2,29.0,30.09,SSE,156,3.0,8.0,75,0.00,,,0.00,Wunderground v.1.15,2013-10-26 13:20:00,
2013-10-26 09:25:00,36.4,29.6,30.09,West,271,4.0,7.0,76,0.00,,,0.00,Wunderground v.1.15,2013-10-26 13:25:00,
2013-10-26 09:30:00,36.7,29.8,30.08,SSE,167,4.0,7.0,76,0.00,,,0.00,Wunderground v.1.15,2013-10-26 13:30:00,
2013-10-26 09:36:00,37.1,29.9,30.08,South,188,4.0,9.0,75,0.00,,,0.00,Wunderground v.1.15,2013-10-26 13:36:00,
2013-10-26 09:41:00,37.3,29.4,30.08,West,270,4.0,9.0,73,0.00,,,0.00,Wunderground v.1.15,2013-10-26 13:41:00,
2013-10-26 09:46:00,37.8,29.6,30.08,West,273,4.0,8.0,72,0.00,,,0.00,Wunderground v.1.15,2013-10-26 13:46:00,
2013-10-26 09:51:00,38.4,30.2,30.08,WNW,297,4.0,8.0,72,0.00,,,0.00,Wunderground v.1.15,2013-10-26 13:51:00,
2013-10-26 09:56:00,38.5,29.9,30.07,SSE,148,4.0,7.0,71,0.00,,,0.00,Wunderground v.1.15,2013-10-26 13:56:00,
2013-10-26 10:01:00,38.8,30.2,30.07,West,266,4.0,7.0,71,0.00,,,0.00,Wunderground v.1.15,2013-10-26 14:01:00,
2013-10-26 10:06:00,39.1,29.8,30.07,SW,221,3.0,8.0,69,0.00,,,0.00,Wunderground v.1.15,2013-10-26 14:06:00,
2013-10-26 10:11:00,39.4,29.7,30.07,SSE,161,4.0,7.0,68,0.00,,,0.00,Wunderground v.1.15,2013-10-26 14:11:00,
2013-10-26 10:16:00,39.6,29.5,30.07,SSW,212,4.0,8.0,67,0.00,,,0.00,Wunderground v.1.15,2013-10-26 14:16:00,
2013-10-26 10:21:00,39.7,28.9,30.07,South,187,5.0,9.0,65,0.00,,,0.00,Wunderground v.1.15,2013-10-26 14:21:00,
2013-10-26 10:26:00,39.8,29.0,30.06,SSW,210,5.0,9.0,65,0.00,,,0.00,Wunderground v.1.15,2013-10-26 14:26:00,
2013-10-26 10:32:00,39.5,27.9,30.06,SW,224,5.0,7.0,63,0.00,,,0.00,Wunderground v.1.15,2013-10-26 14:32:00,
2013-10-26 10:37:00,39.6,28.4,30.05,WNW,289,6.0,8.0,64,0.00,,,0.00,Wunderground v.1.15,2013-10-26 14:37:00,
2013-10-26 10:42:00,40.0,28.8,30.05,South,190,6.0,7.0,64,0.00,,,0.00,Wunderground v.1.15,2013-10-26 14:42:00,
2013-10-26 10:47:00,39.7,28.1,30.05,WNW,302,5.0,7.0,63,0.00,,,0.00,Wunderground v.1.15,2013-10-26 14:47:00,
2013-10-26 10:52:00,39.4,28.2,30.05,SSW,212,4.0,7.0,64,0.00,,,0.00,Wunderground v.1.15,2013-10-26 14:52:00,
2013-10-26 10:57:00,39.0,27.8,30.04,WSW,256,5.0,10.0,64,0.00,,,0.00,Wunderground v.1.15,2013-10-26 14:57:00,
2013-10-26 11:02:00,38.6,27.5,30.04,SSE,166,6.0,8.0,64,0.00,,,0.00,Wunderground v.1.15,2013-10-26 15:02:00,
2013-10-26 11:07:00,38.7,27.9,30.04,WSW,254,5.0,8.0,65,0.00,,,0.00,Wunderground v.1.15,2013-10-26 15:07:00,
2013-10-26 11:12:00,38.9,28.5,30.04,WSW,241,4.0,7.0,66,0.00,,,0.00,Wunderground v.1.15,2013-10-26 15:12:00,
2013-10-26 11:18:00,39.3,28.5,30.03,SSW,212,4.0,9.0,65,0.00,,,0.00,Wunderground v.1.15,2013-10-26 15:18:00,
2013-10-26 11:24:00,39.7,28.1,30.03,SSW,199,4.0,7.0,63,0.00,,,0.00,Wunderground v.1.15,2013-10-26 15:24:00,
2013-10-26 11:29:00,40.2,28.6,30.03,WNW,303,5.0,8.0,63,0.00,,,0.00,Wunderground v.1.15,2013-10-26 15:29:00,
2013-10-26 11:34:00,40.2,28.2,30.02,ESE,115,6.0,10.0,62,0.00,,,0.00,Wunderground v.1.15,2013-10-26 15:34:00,
2013-10-26 11:39:00,40.3,27.9,30.02,SW,226,6.0,10.0,61,0.00,,,0.00,Wunderground v.1.15,2013-10-26 15:39:00,
2013-10-26 11:44:00,40.3,27.9,30.01,WSW,252,6.0,8.0,61,0.00,,,0.00,Wunderground v.1.15,2013-10-26 15:44:00,
2013-10-26 11:50:00,40.4,28.0,30.01,South,173,7.0,12.0,61,0.00,,,0.00,Wunderground v.1.15,2013-10-26 15:50:00,
2013-10-26 11:55:00,40.5,27.7,30.01,West,259,6.0,12.0,60,0.00,,,0.00,Wunderground v.1.15,2013-10-26 15:55:00,
2013-10-26 12:00:00,40.6,27.4,30.01,South,174,6.0,6.0,59,0.00,,,0.00,Wunderground v.1.15,2013-10-26 16:00:00,
2013-10-26 12:05:00,40.5,27.7,30.01,West,259,6.0,10.0,60,0.00,,,0.00,Wunderground v.1.15,2013-10-26 16:05:00,
2013-10-26 12:10:00,40.8,28.4,30.01,West,262,5.0,5.0,61,0.00,,,0.00,Wunderground v.1.15,2013-10-26 16:10:00,
2013-10-26 12:15:00,40.9,27.2,30.00,SW,228,5.0,9.0,58,0.00,,,0.00,Wunderground v.1.15,2013-10-26 16:15:00,
2013-10-26 12:20:00,40.9,27.7,30.00,WNW,288,6.0,6.0,59,0.00,,,0.00,Wunderground v.1.15,2013-10-26 16:20:00,
2013-10-26 12:25:00,40.9,27.2,30.00,WSW,249,6.0,7.0,58,0.00,,,0.00,Wunderground v.1.15,2013-10-26 16:25:00,
2013-10-26 12:30:00,41.3,28.4,30.00,NW,311,6.0,6.0,60,0.00,,,0.00,Wunderground v.1.15,2013-10-26 16:30:00,
2013-10-26 12:35:00,41.3,27.2,30.00,SSW,203,5.0,10.0,57,0.00,,,0.00,Wunderground v.1.15,2013-10-26 16:35:00,
2013-10-26 12:40:00,41.4,27.3,30.00,WSW,256,6.0,6.0,57,0.00,,,0.00,Wunderground v.1.15,2013-10-26 16:40:00,
2013-10-26 12:46:00,41.5,27.4,29.99,SSW,197,6.0,9.0,57,0.00,,,0.00,Wunderground v.1.15,2013-10-26 16:46:00,
2013-10-26 12:51:00,41.5,27.4,29.99,NNE,23,6.0,7.0,57,0.00,,,0.00,Wunderground v.1.15,2013-10-26 16:51:00,
2013-10-26 12:56:00,41.4,26.9,29.99,East,101,7.0,17.0,56,0.00,,,0.00,Wunderground v.1.15,2013-10-26 16:56:00,
2013-10-26 13:01:00,41.3,27.2,29.98,West,276,7.0,7.0,57,0.00,,,0.00,Wunderground v.1.15,2013-10-26 17:01:00,
2013-10-26 13:06:00,41.5,27.0,29.98,South,181,6.0,10.0,56,0.00,,,0.00,Wunderground v.1.15,2013-10-26 17:06:00,
2013-10-26 13:12:00,41.7,27.6,29.98,SW,228,5.0,10.0,57,0.00,,,0.00,Wunderground v.1.15,2013-10-26 17:12:00,
2013-10-26 13:17:00,41.5,27.0,29.98,WNW,289,5.0,10.0,56,0.00,,,0.00,Wunderground v.1.15,2013-10-26 17:17:00,
2013-10-26 13:22:00,41.6,27.1,29.98,SSW,193,6.0,13.0,56,0.00,,,0.00,Wunderground v.1.15,2013-10-26 17:22:00,
2013-10-26 13:27:00,41.6,26.2,29.97,SSW,208,6.0,13.0,54,0.00,,,0.00,Wunderground v.1.15,2013-10-26 17:27:00,
2013-10-26 13:32:00,41.6,26.2,29.97,West,276,7.0,9.0,54,0.00,,,0.00,Wunderground v.1.15,2013-10-26 17:32:00,
2013-10-26 13:38:00,41.8,25.9,29.97,SW,235,6.0,10.0,53,0.00,,,0.00,Wunderground v.1.15,2013-10-26 17:38:00,
2013-10-26 13:43:00,41.9,26.4,29.96,NNW,336,6.0,8.0,54,0.00,,,0.00,Wunderground v.1.15,2013-10-26 17:43:00,
2013-10-26 13:48:00,42.3,26.8,29.96,SW,228,5.0,9.0,54,0.00,,,0.00,Wunderground v.1.15,2013-10-26 17:48:00,
2013-10-26 13:53:00,42.3,27.3,29.96,SSE,151,6.0,7.0,55,0.00,,,0.00,Wunderground v.1.15,2013-10-26 17:53:00,
2013-10-26 13:59:00,42.4,26.5,29.95,SW,231,7.0,22.0,53,0.00,,,0.00,Wunderground v.1.15,2013-10-26 17:59:00,
2013-10-26 14:04:00,42.5,27.0,29.96,West,263,6.0,22.0,54,0.00,,,0.00,Wunderground v.1.15,2013-10-26 18:04:00,
2013-10-26 14:09:00,42.6,26.2,29.95,WSW,256,5.0,22.0,52,0.00,,,0.00,Wunderground v.1.15,2013-10-26 18:09:00,
2013-10-26 14:14:00,42.4,26.0,29.95,SW,218,6.0,22.0,52,0.00,,,0.00,Wunderground v.1.15,2013-10-26 18:14:00,
2013-10-26 14:19:00,42.4,26.5,29.94,South,179,5.0,22.0,53,0.00,,,0.00,Wunderground v.1.15,2013-10-26 18:19:00,
2013-10-26 14:24:00,42.5,26.6,29.94,South,187,5.0,22.0,53,0.00,,,0.00,Wunderground v.1.15,2013-10-26 18:24:00,
2013-10-26 14:29:00,42.5,26.1,29.94,SSW,195,5.0,22.0,52,0.00,,,0.00,Wunderground v.1.15,2013-10-26 18:29:00,
2013-10-26 14:34:00,42.5,26.6,29.93,SW,232,5.0,22.0,53,0.00,,,0.00,Wunderground v.1.15,2013-10-26 18:34:00,
2013-10-26 14:39:00,42.5,26.6,29.93,WSW,257,4.0,22.0,53,0.00,,,0.00,Wunderground v.1.15,2013-10-26 18:39:00,
2013-10-26 14:44:00,42.7,26.3,29.93,SW,224,5.0,22.0,52,0.00,,,0.00,Wunderground v.1.15,2013-10-26 18:44:00,
2013-10-26 14:49:00,42.9,26.5,29.92,SSW,192,5.0,22.0,52,0.00,,,0.00,Wunderground v.1.15,2013-10-26 18:49:00,
2013-10-26 14:54:00,43.3,27.3,29.92,SE,142,4.0,22.0,53,0.00,,,0.00,Wunderground v.1.15,2013-10-26 18:54:00,
2013-10-26 14:59:00,43.5,27.0,29.91,SSE,167,4.0,22.0,52,0.00,,,0.00,Wunderground v.1.15,2013-10-26 18:59:00,
2013-10-26 15:05:00,43.6,26.6,29.91,ESE,117,5.0,22.0,51,0.00,,,0.00,Wunderground v.1.15,2013-10-26 19:05:00,
2013-10-26 15:10:00,43.7,26.7,29.90,ESE,118,5.0,5.0,51,0.00,,,0.00,Wunderground v.1.15,2013-10-26 19:10:00,
2013-10-26 15:15:00,43.9,26.0,29.90,SSW,208,4.0,22.0,49,0.00,,,0.00,Wunderground v.1.15,2013-10-26 19:15:00,
2013-10-26 15:20:00,44.1,25.6,29.90,SSW,210,5.0,5.0,48,0.00,,,0.00,Wunderground v.1.15,2013-10-26 19:20:00,
2013-10-26 15:25:00,44.3,25.3,29.91,NNW,329,6.0,22.0,47,0.00,,,0.00,Wunderground v.1.15,2013-10-26 19:25:00,
2013-10-26 15:31:00,44.7,25.7,29.90,WSW,250,6.0,22.0,47,0.00,,,0.00,Wunderground v.1.15,2013-10-26 19:31:00,
2013-10-26 15:36:00,44.7,25.7,29.90,SSW,200,5.0,22.0,47,0.00,,,0.00,Wunderground v.1.15,2013-10-26 19:36:00,
2013-10-26 15:41:00,44.8,25.8,29.89,South,184,5.0,22.0,47,0.00,,,0.00,Wunderground v.1.15,2013-10-26 19:41:00,
2013-10-26 15:46:00,45.0,26.5,29.88,SSW,211,4.0,22.0,48,0.00,,,0.00,Wunderground v.1.15,2013-10-26 19:46:00,
2013-10-26 15:51:00,45.3,26.2,29.88,West,268,5.0,22.0,47,0.00,,,0.00,Wunderground v.1.15,2013-10-26 19:51:00,
2013-10-26 15:57:00,45.7,26.6,29.88,SSE,162,5.0,22.0,47,0.00,,,0.00,Wunderground v.1.15,2013-10-26 19:57:00,
2013-10-26 16:02:00,45.7,26.1,29.88,West,266,5.0,22.0,46,0.00,,,0.00,Wunderground v.1.15,2013-10-26 20:02:00,
2013-10-26 16:07:00,45.6,26.0,29.88,South,170,4.0,22.0,46,0.00,,,0.00,Wunderground v.1.15,2013-10-26 20:07:00,
2013-10-26 16:12:00,45.4,25.3,29.89,SSE,152,4.0,22.0,45,0.00,,,0.00,Wunderground v.1.15,2013-10-26 20:12:00,
2013-10-26 16:17:00,45.3,26.2,29.89,SW,219,4.0,22.0,47,0.00,,,0.00,Wunderground v.1.15,2013-10-26 20:17:00,
2013-10-26 16:23:00,45.2,25.6,29.89,SSW,212,4.0,22.0,46,0.00,,,0.00,Wunderground v.1.15,2013-10-26 20:23:00,
2013-10-26 16:28:00,45.1,26.1,29.89,SSE,162,5.0,22.0,47,0.00,,,0.00,Wunderground v.1.15,2013-10-26 20:28:00,
2013-10-26 16:33:00,44.9,25.9,29.89,NW,313,4.0,22.0,47,0.00,,,0.00,Wunderground v.1.15,2013-10-26 20:33:00,
2013-10-26 16:38:00,44.9,26.4,29.89,SW,222,2.0,22.0,48,0.00,,,0.00,Wunderground v.1.15,2013-10-26 20:38:00,
2013-10-26 16:43:00,44.7,26.2,29.89,SSW,205,3.0,22.0,48,0.00,,,0.00,Wunderground v.1.15,2013-10-26 20:43:00,
2013-10-26 16:49:00,44.7,26.2,29.89,SSW,203,3.0,22.0,48,0.00,,,0.00,Wunderground v.1.15,2013-10-26 20:49:00,
2013-10-26 16:54:00,44.6,26.6,29.90,WSW,242,4.0,22.0,49,0.00,,,0.00,Wunderground v.1.15,2013-10-26 20:54:00,
2013-10-26 16:59:00,44.5,27.0,29.89,WNW,285,4.0,22.0,50,0.00,,,0.00,Wunderground v.1.15,2013-10-26 20:59:00,
2013-10-26 17:04:00,44.3,26.3,29.89,SSW,212,5.0,22.0,49,0.00,,,0.00,Wunderground v.1.15,2013-10-26 21:04:00,
2013-10-26 17:09:00,44.2,27.2,29.89,WNW,283,4.0,22.0,51,0.00,,,0.00,Wunderground v.1.15,2013-10-26 21:09:00,
2013-10-26 17:15:00,44.0,27.0,29.89,South,183,3.0,22.0,51,0.00,,,0.00,Wunderground v.1.15,2013-10-26 21:15:00,
2013-10-26 17:20:00,43.9,27.4,29.89,South,181,2.0,22.0,52,0.00,,,0.00,Wunderground v.1.15,2013-10-26 21:20:00,
2013-10-26 17:25:00,43.8,27.3,29.89,West,265,3.0,22.0,52,0.00,,,0.00,Wunderground v.1.15,2013-10-26 21:25:00,
2013-10-26 17:30:00,43.9,26.9,29.89,SW,235,4.0,4.0,51,0.00,,,0.00,Wunderground v.1.15,2013-10-26 21:30:00,
2013-10-26 17:35:00,43.8,26.8,29.90,WSW,243,4.0,22.0,51,0.00,,,0.00,Wunderground v.1.15,2013-10-26 21:35:00,
2013-10-26 17:41:00,43.7,26.7,29.90,SW,218,3.0,22.0,51,0.00,,,0.00,Wunderground v.1.15,2013-10-26 21:41:00,
2013-10-26 17:46:00,43.7,26.3,29.90,WSW,255,3.0,22.0,50,0.00,,,0.00,Wunderground v.1.15,2013-10-26 21:46:00,
2013-10-26 17:51:00,43.7,25.8,29.90,WSW,252,3.0,22.0,49,0.00,,,0.00,Wunderground v.1.15,2013-10-26 21:51:00,
2013-10-26 17:56:00,43.7,25.8,29.90,SSW,205,3.0,22.0,49,0.00,,,0.00,Wunderground v.1.15,2013-10-26 21:56:00,
2013-10-26 18:01:00,43.6,25.7,29.89,SSW,201,2.0,22.0,49,0.00,,,0.00,Wunderground v.1.15,2013-10-26 22:01:00,
2013-10-26 18:07:00,43.6,26.2,29.89,SW,225,3.0,22.0,50,0.00,,,0.00,Wunderground v.1.15,2013-10-26 22:07:00,
2013-10-26 18:12:00,43.7,25.8,29.90,SSW,211,4.0,22.0,49,0.00,,,0.00,Wunderground v.1.15,2013-10-26 22:12:00,
2013-10-26 18:17:00,43.6,25.7,29.90,West,274,4.0,22.0,49,0.00,,,0.00,Wunderground v.1.15,2013-10-26 22:17:00,
2013-10-26 18:22:00,43.6,25.7,29.90,SSW,193,4.0,22.0,49,0.00,,,0.00,Wunderground v.1.15,2013-10-26 22:22:00,
2013-10-26 18:27:00,43.5,26.1,29.90,SSE,156,3.0,22.0,50,0.00,,,0.00,Wunderground v.1.15,2013-10-26 22:27:00,
2013-10-26 18:33:00,43.4,26.0,29.90,West,271,2.0,22.0,50,0.00,,,0.00,Wunderground v.1.15,2013-10-26 22:33:00,
2013-10-26 18:38:00,43.4,26.0,29.90,WSW,248,2.0,22.0,50,0.00,,,0.00,Wunderground v.1.15,2013-10-26 22:38:00,
2013-10-26 18:43:00,43.5,26.1,29.90,West,281,4.0,22.0,50,0.00,,,0.00,Wunderground v.1.15,2013-10-26 22:43:00,
2013-10-26 18:48:00,43.5,26.1,29.90,SW,219,4.0,22.0,50,0.00,,,0.00,Wunderground v.1.15,2013-10-26 22:48:00,
2013-10-26 18:53:00,43.5,26.1,29.90,WSW,238,4.0,22.0,50,0.00,,,0.00,Wunderground v.1.15,2013-10-26 22:53:00,
2013-10-26 18:58:00,43.4,26.0,29.89,WSW,248,3.0,22.0,50,0.00,,,0.00,Wunderground v.1.15,2013-10-26 22:58:00,
2013-10-26 19:03:00,43.3,26.4,29.89,WSW,257,2.0,22.0,51,0.00,,,0.00,Wunderground v.1.15,2013-10-26 23:03:00,
2013-10-26 19:08:00,43.3,25.9,29.89,West,263,2.0,22.0,50,0.00,,,0.00,Wunderground v.1.15,2013-10-26 23:08:00,
2013-10-26 19:13:00,43.3,25.9,29.89,WSW,246,3.0,22.0,50,0.00,,,0.00,Wunderground v.1.15,2013-10-26 23:13:00,
2013-10-26 19:18:00,43.4,26.0,29.89,WSW,244,4.0,22.0,50,0.00,,,0.00,Wunderground v.1.15,2013-10-26 23:18:00,
2013-10-26 19:23:00,43.4,26.0,29.89,SW,215,4.0,22.0,50,0.00,,,0.00,Wunderground v.1.15,2013-10-26 23:23:00,
2013-10-26 19:29:00,43.5,25.6,29.89,SW,232,4.0,22.0,49,0.00,,,0.00,Wunderground v.1.15,2013-10-26 23:29:00,
2013-10-26 19:34:00,43.4,25.5,29.89,SW,217,3.0,22.0,49,0.00,,,0.00,Wunderground v.1.15,2013-10-26 23:34:00,
2013-10-26 19:40:00,43.4,26.0,29.89,SW,214,3.0,22.0,50,0.00,,,0.00,Wunderground v.1.15,2013-10-26 23:40:00,
2013-10-26 19:45:00,43.3,25.9,29.89,West,263,2.0,22.0,50,0.00,,,0.00,Wunderground v.1.15,2013-10-26 23:45:00,
2013-10-26 19:51:00,43.3,25.9,29.89,WSW,245,3.0,18.0,50,0.00,,,0.00,Wunderground v.1.15,2013-10-26 23:51:00,
2013-10-26 19:56:00,43.3,25.4,29.88,SE,143,3.0,18.0,49,0.00,,,0.00,Wunderground v.1.15,2013-10-26 23:56:00,
2013-10-26 20:01:00,43.4,26.0,29.88,NW,316,4.0,18.0,50,0.00,,,0.00,Wunderground v.1.15,2013-10-27 00:01:00,
2013-10-26 20:06:00,43.4,26.0,29.88,West,271,4.0,18.0,50,0.00,,,0.00,Wunderground v.1.15,2013-10-27 00:06:00,
2013-10-26 20:11:00,43.3,25.9,29.88,SW,228,3.0,18.0,50,0.00,,,0.00,Wunderground v.1.15,2013-10-27 00:11:00,
2013-10-26 20:17:00,43.2,25.8,29.88,SW,233,3.0,18.0,50,0.00,,,0.00,Wunderground v.1.15,2013-10-27 00:17:00,
2013-10-26 20:22:00,43.3,25.9,29.88,South,179,3.0,18.0,50,0.00,,,0.00,Wunderground v.1.15,2013-10-27 00:22:00,
2013-10-26 20:27:00,43.2,26.3,29.88,WNW,294,3.0,18.0,51,0.00,,,0.00,Wunderground v.1.15,2013-10-27 00:27:00,
2013-10-26 20:32:00,43.2,26.3,29.88,SW,228,3.0,18.0,51,0.00,,,0.00,Wunderground v.1.15,2013-10-27 00:32:00,
2013-10-26 20:37:00,43.2,26.7,29.88,SW,223,4.0,18.0,52,0.00,,,0.00,Wunderground v.1.15,2013-10-27 00:37:00,
2013-10-26 20:43:00,43.1,26.7,29.88,SSW,201,4.0,18.0,52,0.00,,,0.00,Wunderground v.1.15,2013-10-27 00:43:00,
2013-10-26 20:48:00,43.1,26.7,29.88,SW,235,4.0,18.0,52,0.00,,,0.00,Wunderground v.1.15,2013-10-27 00:48:00,
2013-10-26 20:53:00,43.0,26.6,29.88,West,274,4.0,18.0,52,0.00,,,0.00,Wunderground v.1.15,2013-10-27 00:53:00,
2013-10-26 20:58:00,43.0,26.6,29.88,WSW,240,5.0,18.0,52,0.00,,,0.00,Wunderground v.1.15,2013-10-27 00:58:00,
2013-10-26 21:03:00,43.1,26.7,29.88,NW,311,5.0,18.0,52,0.00,,,0.00,Wunderground v.1.15,2013-10-27 01:03:00,
2013-10-26 21:09:00,43.0,26.6,29.88,WSW,239,5.0,18.0,52,0.00,,,0.00,Wunderground v.1.15,2013-10-27 01:09:00,
2013-10-26 21:14:00,42.9,26.9,29.88,SW,219,4.0,18.0,53,0.00,,,0.00,Wunderground v.1.15,2013-10-27 01:14:00,
2013-10-26 21:19:00,42.8,26.8,29.88,West,269,4.0,18.0,53,0.00,,,0.00,Wunderground v.1.15,2013-10-27 01:19:00,
2013-10-26 21:24:00,42.7,27.2,29.88,West,260,4.0,18.0,54,0.00,,,0.00,Wunderground v.1.15,2013-10-27 01:24:00,
2013-10-26 21:29:00,42.6,27.1,29.88,South,190,4.0,18.0,54,0.00,,,0.00,Wunderground v.1.15,2013-10-27 01:29:00,
2013-10-26 21:35:00,42.4,27.4,29.88,WSW,252,3.0,18.0,55,0.00,,,0.00,Wunderground v.1.15,2013-10-27 01:35:00,
2013-10-26 21:40:00,42.4,27.4,29.88,SSW,195,3.0,3.0,55,0.00,,,0.00,Wunderground v.1.15,2013-10-27 01:40:00,
2013-10-26 21:45:00,42.4,27.4,29.88,WSW,247,4.0,18.0,55,0.00,,,0.00,Wunderground v.1.15,2013-10-27 01:45:00,
2013-10-26 21:50:00,42.4,27.8,29.87,West,270,4.0,4.0,56,0.00,,,0.00,Wunderground v.1.15,2013-10-27 01:50:00,
2013-10-26 21:55:00,42.4,27.4,29.88,West,269,3.0,18.0,55,0.00,,,0.00,Wunderground v.1.15,2013-10-27 01:55:00,
2013-10-26 22:00:00,42.4,27.4,29.88,SW,226,3.0,3.0,55,0.00,,,0.00,Wunderground v.1.15,2013-10-27 02:00:00,
2013-10-26 22:05:00,42.5,27.5,29.88,West,276,4.0,18.0,55,0.00,,,0.00,Wunderground v.1.15,2013-10-27 02:05:00,
2013-10-26 22:10:00,42.5,27.5,29.88,WSW,252,4.0,4.0,55,0.00,,,0.00,Wunderground v.1.15,2013-10-27 02:10:00,
2013-10-26 22:15:00,42.5,27.5,29.87,West,262,3.0,18.0,55,0.00,,,0.00,Wunderground v.1.15,2013-10-27 02:15:00,
2013-10-26 22:20:00,42.4,27.4,29.87,West,261,3.0,18.0,55,0.00,,,0.00,Wunderground v.1.15,2013-10-27 02:20:00,
2013-10-26 22:25:00,42.4,27.4,29.87,SW,235,3.0,18.0,55,0.00,,,0.00,Wunderground v.1.15,2013-10-27 02:25:00,
2013-10-26 22:31:00,42.4,27.8,29.87,West,274,2.0,18.0,56,0.00,,,0.00,Wunderground v.1.15,2013-10-27 02:31:00,
2013-10-26 22:36:00,42.4,27.4,29.87,SW,224,3.0,18.0,55,0.00,,,0.00,Wunderground v.1.15,2013-10-27 02:36:00,
2013-10-26 22:41:00,42.4,27.4,29.87,SW,228,3.0,18.0,55,0.00,,,0.00,Wunderground v.1.15,2013-10-27 02:41:00,
2013-10-26 22:46:00,42.4,27.4,29.87,SW,229,3.0,18.0,55,0.00,,,0.00,Wunderground v.1.15,2013-10-27 02:46:00,
2013-10-26 22:51:00,42.4,27.8,29.87,SW,229,4.0,18.0,56,0.00,,,0.00,Wunderground v.1.15,2013-10-27 02:51:00,
2013-10-26 22:57:00,42.3,28.1,29.86,WSW,248,4.0,18.0,57,0.00,,,0.00,Wunderground v.1.15,2013-10-27 02:57:00,
2013-10-26 23:02:00,42.3,28.1,29.87,SSW,207,5.0,18.0,57,0.00,,,0.00,Wunderground v.1.15,2013-10-27 03:02:00,
2013-10-26 23:07:00,42.3,28.1,29.87,South,180,5.0,18.0,57,0.00,,,0.00,Wunderground v.1.15,2013-10-27 03:07:00,
2013-10-26 23:12:00,42.1,28.4,29.87,WNW,290,4.0,18.0,58,0.00,,,0.00,Wunderground v.1.15,2013-10-27 03:12:00,
2013-10-26 23:18:00,42.0,28.7,29.87,WSW,255,4.0,18.0,59,0.00,,,0.00,Wunderground v.1.15,2013-10-27 03:18:00,
2013-10-26 23:23:00,41.9,29.0,29.86,West,270,4.0,18.0,60,0.00,,,0.00,Wunderground v.1.15,2013-10-27 03:23:00,
2013-10-26 23:28:00,41.8,29.3,29.86,West,267,6.0,18.0,61,0.00,,,0.00,Wunderground v.1.15,2013-10-27 03:28:00,
2013-10-26 23:33:00,41.6,29.5,29.87,West,277,5.0,18.0,62,0.00,,,0.00,Wunderground v.1.15,2013-10-27 03:33:00,
2013-10-26 23:38:00,41.5,29.8,29.87,SW,218,4.0,18.0,63,0.00,,,0.00,Wunderground v.1.15,2013-10-27 03:38:00,
2013-10-26 23:43:00,41.3,30.4,29.87,WSW,248,6.0,18.0,65,0.00,,,0.00,Wunderground v.1.15,2013-10-27 03:43:00,
2013-10-26 23:49:00,41.1,31.0,29.88,WNW,289,6.0,18.0,67,0.00,,,0.00,Wunderground v.1.15,2013-10-27 03:49:00,
2013-10-26 23:54:00,40.8,31.4,29.87,WSW,245,5.0,18.0,69,0.00,,,0.00,Wunderground v.1.15,2013-10-27 03:54:00,
2013-10-26 23:59:00,40.6,31.9,29.87,WSW,249,5.0,18.0,71,0.00,,,0.00,Wunderground v.1.15,2013-10-27 03:59:00,